sensor_id;sensor_type;location;lat;lon;timestamp;P1;durP1;ratioP1;P2;durP2;ratioP2
67841;SDS011;54642;59.126;37.876;2022-12-24T00:00:14;7.32;;;2.80;;
67841;SDS011;54642;59.126;37.876;2022-12-24T00:02:40;6.78;;;2.83;;
67841;SDS011;54642;59.126;37.876;2022-12-24T00:05:07;4.93;;;2.60;;
67841;SDS011;54642;59.126;37.876;2022-12-24T00:07:33;5.30;;;2.08;;
67841;SDS011;54642;59.126;37.876;2022-12-24T00:12:25;4.70;;;2.38;;
67841;SDS011;54642;59.126;37.876;2022-12-24T00:14:51;7.10;;;2.00;;
67841;SDS011;54642;59.126;37.876;2022-12-24T00:17:16;7.63;;;3.78;;
67841;SDS011;54642;59.126;37.876;2022-12-24T00:19:45;3.42;;;2.10;;
67841;SDS011;54642;59.126;37.876;2022-12-24T00:24:37;4.97;;;2.65;;
67841;SDS011;54642;59.126;37.876;2022-12-24T00:29:30;2.78;;;1.70;;
67841;SDS011;54642;59.126;37.876;2022-12-24T00:31:57;3.58;;;2.33;;
67841;SDS011;54642;59.126;37.876;2022-12-24T00:34:23;2.88;;;1.83;;
67841;SDS011;54642;59.126;37.876;2022-12-24T00:36:50;2.20;;;1.02;;
67841;SDS011;54642;59.126;37.876;2022-12-24T00:39:16;2.70;;;1.40;;
67841;SDS011;54642;59.126;37.876;2022-12-24T00:41:42;2.67;;;1.30;;
67841;SDS011;54642;59.126;37.876;2022-12-24T00:44:09;2.85;;;1.48;;
67841;SDS011;54642;59.126;37.876;2022-12-24T00:46:36;3.33;;;1.55;;
67841;SDS011;54642;59.126;37.876;2022-12-24T00:49:04;3.22;;;1.70;;
67841;SDS011;54642;59.126;37.876;2022-12-24T00:51:31;3.00;;;1.63;;
67841;SDS011;54642;59.126;37.876;2022-12-24T00:53:58;3.33;;;1.67;;
67841;SDS011;54642;59.126;37.876;2022-12-24T00:58:50;3.22;;;1.50;;
67841;SDS011;54642;59.126;37.876;2022-12-24T01:01:16;2.83;;;2.03;;
67841;SDS011;54642;59.126;37.876;2022-12-24T01:03:42;2.90;;;1.60;;
67841;SDS011;54642;59.126;37.876;2022-12-24T01:08:37;1.90;;;1.08;;
67841;SDS011;54642;59.126;37.876;2022-12-24T01:11:04;3.55;;;1.48;;
67841;SDS011;54642;59.126;37.876;2022-12-24T01:13:31;2.63;;;1.67;;
67841;SDS011;54642;59.126;37.876;2022-12-24T01:15:57;2.28;;;1.38;;
67841;SDS011;54642;59.126;37.876;2022-12-24T01:18:23;3.97;;;1.52;;
67841;SDS011;54642;59.126;37.876;2022-12-24T01:21:00;3.30;;;3.00;;
67841;SDS011;54642;59.126;37.876;2022-12-24T01:23:28;3.28;;;2.88;;
67841;SDS011;54642;59.126;37.876;2022-12-24T01:25:58;1.90;;;1.27;;
67841;SDS011;54642;59.126;37.876;2022-12-24T01:28:26;3.05;;;1.60;;
67841;SDS011;54642;59.126;37.876;2022-12-24T01:30:52;4.38;;;1.50;;
67841;SDS011;54642;59.126;37.876;2022-12-24T01:33:19;2.00;;;1.25;;
67841;SDS011;54642;59.126;37.876;2022-12-24T01:35:45;2.97;;;1.60;;
67841;SDS011;54642;59.126;37.876;2022-12-24T01:40:38;2.00;;;1.10;;
67841;SDS011;54642;59.126;37.876;2022-12-24T01:43:24;3.08;;;1.50;;
67841;SDS011;54642;59.126;37.876;2022-12-24T01:51:47;2.75;;;1.52;;
67841;SDS011;54642;59.126;37.876;2022-12-24T01:53:57;2.65;;;1.30;;
67841;SDS011;54642;59.126;37.876;2022-12-24T01:56:28;1.95;;;1.17;;
67841;SDS011;54642;59.126;37.876;2022-12-24T01:59:03;2.65;;;1.30;;
67841;SDS011;54642;59.126;37.876;2022-12-24T02:01:32;2.03;;;1.20;;
67841;SDS011;54642;59.126;37.876;2022-12-24T02:04:00;3.40;;;3.10;;
67841;SDS011;54642;59.126;37.876;2022-12-24T02:06:29;2.03;;;1.00;;
67841;SDS011;54642;59.126;37.876;2022-12-24T02:11:21;2.03;;;1.35;;
67841;SDS011;54642;59.126;37.876;2022-12-24T02:13:55;1.98;;;1.20;;
67841;SDS011;54642;59.126;37.876;2022-12-24T02:19:20;1.70;;;1.10;;
67841;SDS011;54642;59.126;37.876;2022-12-24T02:22:23;2.58;;;1.30;;
67841;SDS011;54642;59.126;37.876;2022-12-24T02:25:31;2.00;;;1.27;;
67841;SDS011;54642;59.126;37.876;2022-12-24T02:30:32;2.10;;;1.02;;
67841;SDS011;54642;59.126;37.876;2022-12-24T02:38:23;2.30;;;1.88;;
67841;SDS011;54642;59.126;37.876;2022-12-24T02:40:55;3.10;;;1.30;;
67841;SDS011;54642;59.126;37.876;2022-12-24T02:43:28;1.92;;;1.45;;
67841;SDS011;54642;59.126;37.876;2022-12-24T02:46:01;2.30;;;1.67;;
67841;SDS011;54642;59.126;37.876;2022-12-24T02:48:32;1.98;;;1.60;;
67841;SDS011;54642;59.126;37.876;2022-12-24T02:51:05;2.13;;;1.52;;
67841;SDS011;54642;59.126;37.876;2022-12-24T02:53:33;2.13;;;1.20;;
67841;SDS011;54642;59.126;37.876;2022-12-24T03:12:12;2.35;;;1.42;;
67841;SDS011;54642;59.126;37.876;2022-12-24T03:14:43;2.13;;;1.45;;
67841;SDS011;54642;59.126;37.876;2022-12-24T03:17:12;2.75;;;1.52;;
67841;SDS011;54642;59.126;37.876;2022-12-24T03:19:40;2.33;;;1.40;;
67841;SDS011;54642;59.126;37.876;2022-12-24T03:22:06;4.45;;;2.40;;
67841;SDS011;54642;59.126;37.876;2022-12-24T03:24:36;4.82;;;2.75;;
67841;SDS011;54642;59.126;37.876;2022-12-24T03:27:03;2.90;;;1.45;;
67841;SDS011;54642;59.126;37.876;2022-12-24T03:29:31;3.00;;;1.73;;
67841;SDS011;54642;59.126;37.876;2022-12-24T03:31:59;2.10;;;1.48;;
67841;SDS011;54642;59.126;37.876;2022-12-24T03:34:26;2.92;;;1.85;;
67841;SDS011;54642;59.126;37.876;2022-12-24T03:36:52;2.35;;;1.45;;
67841;SDS011;54642;59.126;37.876;2022-12-24T03:41:44;3.00;;;1.52;;
67841;SDS011;54642;59.126;37.876;2022-12-24T03:44:10;3.42;;;3.13;;
67841;SDS011;54642;59.126;37.876;2022-12-24T03:49:02;1.85;;;1.00;;
67841;SDS011;54642;59.126;37.876;2022-12-24T03:53:54;1.83;;;1.10;;
67841;SDS011;54642;59.126;37.876;2022-12-24T03:56:21;4.90;;;1.20;;
67841;SDS011;54642;59.126;37.876;2022-12-24T03:58:48;1.73;;;1.15;;
67841;SDS011;54642;59.126;37.876;2022-12-24T04:01:14;2.55;;;1.30;;
67841;SDS011;54642;59.126;37.876;2022-12-24T04:03:42;2.05;;;1.20;;
67841;SDS011;54642;59.126;37.876;2022-12-24T04:06:10;3.17;;;1.55;;
67841;SDS011;54642;59.126;37.876;2022-12-24T04:08:37;2.42;;;2.08;;
67841;SDS011;54642;59.126;37.876;2022-12-24T04:11:05;2.50;;;1.27;;
67841;SDS011;54642;59.126;37.876;2022-12-24T04:13:33;2.45;;;1.50;;
67841;SDS011;54642;59.126;37.876;2022-12-24T04:16:00;1.95;;;1.35;;
67841;SDS011;54642;59.126;37.876;2022-12-24T04:18:28;1.75;;;1.20;;
67841;SDS011;54642;59.126;37.876;2022-12-24T04:25:13;2.28;;;1.30;;
67841;SDS011;54642;59.126;37.876;2022-12-24T04:27:39;3.13;;;2.83;;
67841;SDS011;54642;59.126;37.876;2022-12-24T04:30:05;2.13;;;1.48;;
67841;SDS011;54642;59.126;37.876;2022-12-24T04:32:32;4.35;;;3.03;;
67841;SDS011;54642;59.126;37.876;2022-12-24T04:37:23;1.98;;;1.20;;
67841;SDS011;54642;59.126;37.876;2022-12-24T04:39:49;2.25;;;1.45;;
67841;SDS011;54642;59.126;37.876;2022-12-24T04:44:41;3.20;;;2.53;;
67841;SDS011;54642;59.126;37.876;2022-12-24T04:49:32;2.25;;;1.77;;
67841;SDS011;54642;59.126;37.876;2022-12-24T04:54:24;2.60;;;1.58;;
67841;SDS011;54642;59.126;37.876;2022-12-24T04:59:16;3.58;;;2.03;;
67841;SDS011;54642;59.126;37.876;2022-12-24T05:04:07;2.00;;;1.20;;
67841;SDS011;54642;59.126;37.876;2022-12-24T05:06:36;4.47;;;2.13;;
67841;SDS011;54642;59.126;37.876;2022-12-24T05:09:02;2.72;;;1.58;;
67841;SDS011;54642;59.126;37.876;2022-12-24T05:11:29;5.03;;;1.70;;
67841;SDS011;54642;59.126;37.876;2022-12-24T05:13:55;2.78;;;2.22;;
67841;SDS011;54642;59.126;37.876;2022-12-24T05:18:47;3.53;;;1.85;;
67841;SDS011;54642;59.126;37.876;2022-12-24T05:23:39;2.83;;;2.25;;
67841;SDS011;54642;59.126;37.876;2022-12-24T05:26:38;2.25;;;1.45;;
67841;SDS011;54642;59.126;37.876;2022-12-24T05:29:07;3.33;;;3.03;;
67841;SDS011;54642;59.126;37.876;2022-12-24T05:31:34;2.35;;;1.52;;
67841;SDS011;54642;59.126;37.876;2022-12-24T05:34:00;3.65;;;2.17;;
67841;SDS011;54642;59.126;37.876;2022-12-24T05:36:27;3.50;;;2.20;;
67841;SDS011;54642;59.126;37.876;2022-12-24T05:38:53;2.42;;;1.90;;
67841;SDS011;54642;59.126;37.876;2022-12-24T05:43:45;2.83;;;1.77;;
67841;SDS011;54642;59.126;37.876;2022-12-24T05:46:12;3.30;;;1.67;;
67841;SDS011;54642;59.126;37.876;2022-12-24T05:48:39;3.70;;;3.20;;
67841;SDS011;54642;59.126;37.876;2022-12-24T05:51:07;3.65;;;3.20;;
67841;SDS011;54642;59.126;37.876;2022-12-24T05:53:34;6.65;;;4.32;;
67841;SDS011;54642;59.126;37.876;2022-12-24T05:56:08;4.90;;;2.05;;
67841;SDS011;54642;59.126;37.876;2022-12-24T05:58:36;2.75;;;1.73;;
67841;SDS011;54642;59.126;37.876;2022-12-24T06:01:03;2.42;;;1.55;;
67841;SDS011;54642;59.126;37.876;2022-12-24T06:03:30;5.07;;;2.45;;
67841;SDS011;54642;59.126;37.876;2022-12-24T06:08:47;4.47;;;3.53;;
67841;SDS011;54642;59.126;37.876;2022-12-24T06:11:15;3.25;;;1.90;;
67841;SDS011;54642;59.126;37.876;2022-12-24T06:13:43;3.17;;;2.30;;
67841;SDS011;54642;59.126;37.876;2022-12-24T06:16:14;2.88;;;1.73;;
67841;SDS011;54642;59.126;37.876;2022-12-24T06:18:42;3.88;;;2.03;;
67841;SDS011;54642;59.126;37.876;2022-12-24T06:21:09;4.63;;;2.28;;
67841;SDS011;54642;59.126;37.876;2022-12-24T06:23:37;4.68;;;3.28;;
67841;SDS011;54642;59.126;37.876;2022-12-24T06:26:05;4.47;;;2.95;;
67841;SDS011;54642;59.126;37.876;2022-12-24T06:28:33;3.95;;;2.13;;
67841;SDS011;54642;59.126;37.876;2022-12-24T06:31:01;2.95;;;2.25;;
67841;SDS011;54642;59.126;37.876;2022-12-24T06:33:29;5.05;;;4.55;;
67841;SDS011;54642;59.126;37.876;2022-12-24T06:35:58;2.80;;;1.80;;
67841;SDS011;54642;59.126;37.876;2022-12-24T06:38:24;4.63;;;2.13;;
67841;SDS011;54642;59.126;37.876;2022-12-24T06:40:51;2.95;;;2.20;;
67841;SDS011;54642;59.126;37.876;2022-12-24T06:45:43;3.78;;;2.58;;
67841;SDS011;54642;59.126;37.876;2022-12-24T06:48:11;3.47;;;2.03;;
67841;SDS011;54642;59.126;37.876;2022-12-24T06:50:37;4.90;;;3.85;;
67841;SDS011;54642;59.126;37.876;2022-12-24T06:53:04;3.63;;;2.22;;
67841;SDS011;54642;59.126;37.876;2022-12-24T06:55:30;5.30;;;2.30;;
67841;SDS011;54642;59.126;37.876;2022-12-24T06:57:56;3.72;;;2.10;;
67841;SDS011;54642;59.126;37.876;2022-12-24T07:00:23;2.88;;;1.75;;
67841;SDS011;54642;59.126;37.876;2022-12-24T07:02:49;2.88;;;2.00;;
67841;SDS011;54642;59.126;37.876;2022-12-24T07:07:41;3.55;;;2.38;;
67841;SDS011;54642;59.126;37.876;2022-12-24T07:10:11;5.30;;;2.60;;
67841;SDS011;54642;59.126;37.876;2022-12-24T07:12:39;3.25;;;2.03;;
67841;SDS011;54642;59.126;37.876;2022-12-24T07:15:05;3.17;;;2.17;;
67841;SDS011;54642;59.126;37.876;2022-12-24T07:17:32;3.60;;;2.25;;
67841;SDS011;54642;59.126;37.876;2022-12-24T07:22:24;6.22;;;2.40;;
67841;SDS011;54642;59.126;37.876;2022-12-24T07:24:50;4.55;;;2.45;;
67841;SDS011;54642;59.126;37.876;2022-12-24T07:29:41;4.43;;;2.58;;
67841;SDS011;54642;59.126;37.876;2022-12-24T07:34:33;3.72;;;2.88;;
67841;SDS011;54642;59.126;37.876;2022-12-24T07:37:00;4.47;;;3.00;;
67841;SDS011;54642;59.126;37.876;2022-12-24T07:41:51;3.53;;;2.55;;
67841;SDS011;54642;59.126;37.876;2022-12-24T07:44:18;4.57;;;1.98;;
67841;SDS011;54642;59.126;37.876;2022-12-24T07:49:09;7.05;;;3.10;;
67841;SDS011;54642;59.126;37.876;2022-12-24T07:51:36;6.55;;;3.67;;
67841;SDS011;54642;59.126;37.876;2022-12-24T07:54:02;4.60;;;2.90;;
67841;SDS011;54642;59.126;37.876;2022-12-24T07:56:29;4.80;;;2.42;;
67841;SDS011;54642;59.126;37.876;2022-12-24T07:58:56;5.00;;;3.30;;
67841;SDS011;54642;59.126;37.876;2022-12-24T08:03:47;3.70;;;2.42;;
67841;SDS011;54642;59.126;37.876;2022-12-24T08:06:15;3.58;;;2.33;;
67841;SDS011;54642;59.126;37.876;2022-12-24T08:08:41;3.42;;;2.15;;
67841;SDS011;54642;59.126;37.876;2022-12-24T08:13:33;5.15;;;2.03;;
67841;SDS011;54642;59.126;37.876;2022-12-24T08:15:59;4.45;;;3.28;;
67841;SDS011;54642;59.126;37.876;2022-12-24T08:20:51;3.95;;;2.30;;
67841;SDS011;54642;59.126;37.876;2022-12-24T08:23:17;3.60;;;2.30;;
67841;SDS011;54642;59.126;37.876;2022-12-24T08:25:43;2.95;;;2.08;;
67841;SDS011;54642;59.126;37.876;2022-12-24T08:28:12;2.97;;;2.38;;
67841;SDS011;54642;59.126;37.876;2022-12-24T08:30:39;10.50;;;2.15;;
67841;SDS011;54642;59.126;37.876;2022-12-24T08:33:05;5.28;;;2.15;;
67841;SDS011;54642;59.126;37.876;2022-12-24T08:35:31;3.78;;;2.63;;
67841;SDS011;54642;59.126;37.876;2022-12-24T08:40:23;4.60;;;2.33;;
67841;SDS011;54642;59.126;37.876;2022-12-24T08:42:49;3.50;;;2.05;;
67841;SDS011;54642;59.126;37.876;2022-12-24T08:47:40;2.78;;;1.70;;
67841;SDS011;54642;59.126;37.876;2022-12-24T08:52:32;4.28;;;2.08;;
67841;SDS011;54642;59.126;37.876;2022-12-24T08:54:58;3.53;;;1.92;;
67841;SDS011;54642;59.126;37.876;2022-12-24T08:57:24;3.85;;;2.25;;
67841;SDS011;54642;59.126;37.876;2022-12-24T09:02:16;3.60;;;2.42;;
67841;SDS011;54642;59.126;37.876;2022-12-24T09:04:42;3.17;;;2.10;;
67841;SDS011;54642;59.126;37.876;2022-12-24T09:07:08;3.28;;;1.88;;
67841;SDS011;54642;59.126;37.876;2022-12-24T09:09:35;2.92;;;1.75;;
67841;SDS011;54642;59.126;37.876;2022-12-24T09:12:02;3.25;;;1.90;;
67841;SDS011;54642;59.126;37.876;2022-12-24T09:14:29;4.15;;;2.10;;
67841;SDS011;54642;59.126;37.876;2022-12-24T09:19:21;3.25;;;2.28;;
67841;SDS011;54642;59.126;37.876;2022-12-24T09:24:12;3.30;;;2.08;;
67841;SDS011;54642;59.126;37.876;2022-12-24T09:29:06;2.60;;;1.63;;
67841;SDS011;54642;59.126;37.876;2022-12-24T09:34:07;3.22;;;2.03;;
67841;SDS011;54642;59.126;37.876;2022-12-24T09:36:34;4.88;;;2.17;;
67841;SDS011;54642;59.126;37.876;2022-12-24T09:39:00;4.35;;;3.33;;
67841;SDS011;54642;59.126;37.876;2022-12-24T09:44:25;4.25;;;1.92;;
67841;SDS011;54642;59.126;37.876;2022-12-24T09:46:50;2.70;;;1.80;;
67841;SDS011;54642;59.126;37.876;2022-12-24T09:49:19;4.15;;;3.55;;
67841;SDS011;54642;59.126;37.876;2022-12-24T09:51:50;3.00;;;1.85;;
67841;SDS011;54642;59.126;37.876;2022-12-24T09:56:52;2.60;;;2.00;;
67841;SDS011;54642;59.126;37.876;2022-12-24T09:59:22;3.38;;;2.50;;
67841;SDS011;54642;59.126;37.876;2022-12-24T10:01:50;3.25;;;2.08;;
67841;SDS011;54642;59.126;37.876;2022-12-24T10:04:20;2.38;;;1.70;;
67841;SDS011;54642;59.126;37.876;2022-12-24T10:15:09;4.43;;;3.45;;
67841;SDS011;54642;59.126;37.876;2022-12-24T10:18:02;5.75;;;3.80;;
67841;SDS011;54642;59.126;37.876;2022-12-24T10:23:58;3.20;;;2.40;;
67841;SDS011;54642;59.126;37.876;2022-12-24T10:26:36;3.83;;;2.00;;
67841;SDS011;54642;59.126;37.876;2022-12-24T10:29:19;3.42;;;2.28;;
67841;SDS011;54642;59.126;37.876;2022-12-24T10:32:03;4.45;;;2.50;;
67841;SDS011;54642;59.126;37.876;2022-12-24T10:34:42;3.63;;;2.28;;
67841;SDS011;54642;59.126;37.876;2022-12-24T10:37:20;3.50;;;2.00;;
67841;SDS011;54642;59.126;37.876;2022-12-24T10:39:49;4.05;;;2.50;;
67841;SDS011;54642;59.126;37.876;2022-12-24T10:42:16;3.90;;;2.50;;
67841;SDS011;54642;59.126;37.876;2022-12-24T10:44:44;3.13;;;2.47;;
67841;SDS011;54642;59.126;37.876;2022-12-24T10:47:26;4.88;;;4.47;;
67841;SDS011;54642;59.126;37.876;2022-12-24T10:52:39;6.45;;;3.40;;
67841;SDS011;54642;59.126;37.876;2022-12-24T10:57:44;6.75;;;3.83;;
67841;SDS011;54642;59.126;37.876;2022-12-24T11:00:21;9.23;;;4.63;;
67841;SDS011;54642;59.126;37.876;2022-12-24T11:02:49;4.65;;;2.55;;
67841;SDS011;54642;59.126;37.876;2022-12-24T11:05:34;4.75;;;2.95;;
67841;SDS011;54642;59.126;37.876;2022-12-24T11:08:02;4.30;;;2.42;;
67841;SDS011;54642;59.126;37.876;2022-12-24T11:10:39;4.63;;;2.78;;
67841;SDS011;54642;59.126;37.876;2022-12-24T11:16:01;4.88;;;2.55;;
67841;SDS011;54642;59.126;37.876;2022-12-24T11:18:48;4.90;;;3.25;;
67841;SDS011;54642;59.126;37.876;2022-12-24T11:21:20;3.45;;;2.40;;
67841;SDS011;54642;59.126;37.876;2022-12-24T11:23:58;6.40;;;3.60;;
67841;SDS011;54642;59.126;37.876;2022-12-24T11:26:32;5.75;;;3.28;;
67841;SDS011;54642;59.126;37.876;2022-12-24T11:31:33;3.60;;;2.25;;
67841;SDS011;54642;59.126;37.876;2022-12-24T11:34:15;3.33;;;2.42;;
67841;SDS011;54642;59.126;37.876;2022-12-24T11:36:50;3.92;;;2.60;;
67841;SDS011;54642;59.126;37.876;2022-12-24T11:39:18;3.22;;;2.30;;
67841;SDS011;54642;59.126;37.876;2022-12-24T11:41:47;4.35;;;2.58;;
67841;SDS011;54642;59.126;37.876;2022-12-24T11:44:21;3.20;;;2.15;;
67841;SDS011;54642;59.126;37.876;2022-12-24T11:46:50;3.92;;;2.63;;
67841;SDS011;54642;59.126;37.876;2022-12-24T11:49:22;3.25;;;2.78;;
67841;SDS011;54642;59.126;37.876;2022-12-24T11:52:02;3.90;;;2.35;;
67841;SDS011;54642;59.126;37.876;2022-12-24T11:56:58;4.40;;;2.60;;
67841;SDS011;54642;59.126;37.876;2022-12-24T11:59:41;5.30;;;3.22;;
67841;SDS011;54642;59.126;37.876;2022-12-24T12:02:14;8.23;;;4.53;;
67841;SDS011;54642;59.126;37.876;2022-12-24T12:04:59;4.72;;;4.30;;
67841;SDS011;54642;59.126;37.876;2022-12-24T12:07:33;5.20;;;3.60;;
67841;SDS011;54642;59.126;37.876;2022-12-24T12:15:34;5.30;;;3.22;;
67841;SDS011;54642;59.126;37.876;2022-12-24T12:20:50;4.80;;;4.30;;
67841;SDS011;54642;59.126;37.876;2022-12-24T12:23:29;3.85;;;1.98;;
67841;SDS011;54642;59.126;37.876;2022-12-24T12:34:18;10.40;;;7.15;;
67841;SDS011;54642;59.126;37.876;2022-12-24T12:36:45;11.77;;;6.50;;
67841;SDS011;54642;59.126;37.876;2022-12-24T12:39:14;14.57;;;8.00;;
67841;SDS011;54642;59.126;37.876;2022-12-24T12:44:10;11.70;;;5.13;;
67841;SDS011;54642;59.126;37.876;2022-12-24T12:47:02;9.10;;;4.25;;
67841;SDS011;54642;59.126;37.876;2022-12-24T12:49:49;4.90;;;2.65;;
67841;SDS011;54642;59.126;37.876;2022-12-24T12:52:22;9.55;;;4.15;;
67841;SDS011;54642;59.126;37.876;2022-12-24T12:58:00;6.85;;;3.75;;
67841;SDS011;54642;59.126;37.876;2022-12-24T13:00:32;5.38;;;3.15;;
67841;SDS011;54642;59.126;37.876;2022-12-24T13:03:09;6.30;;;3.70;;
67841;SDS011;54642;59.126;37.876;2022-12-24T13:17:25;15.52;;;7.70;;
67841;SDS011;54642;59.126;37.876;2022-12-24T13:20:09;8.23;;;4.35;;
67841;SDS011;54642;59.126;37.876;2022-12-24T13:22:58;11.43;;;5.32;;
67841;SDS011;54642;59.126;37.876;2022-12-24T13:25:29;12.38;;;5.72;;
67841;SDS011;54642;59.126;37.876;2022-12-24T13:33:50;26.35;;;12.55;;
67841;SDS011;54642;59.126;37.876;2022-12-24T13:36:21;22.23;;;6.15;;
67841;SDS011;54642;59.126;37.876;2022-12-24T13:38:48;10.85;;;4.25;;
67841;SDS011;54642;59.126;37.876;2022-12-24T13:46:57;23.15;;;10.45;;
67841;SDS011;54642;59.126;37.876;2022-12-24T13:49:28;21.30;;;7.10;;
67841;SDS011;54642;59.126;37.876;2022-12-24T13:54:36;30.60;;;5.20;;
67841;SDS011;54642;59.126;37.876;2022-12-24T14:00:04;18.73;;;4.72;;
67841;SDS011;54642;59.126;37.876;2022-12-24T14:02:38;18.52;;;3.70;;
67841;SDS011;54642;59.126;37.876;2022-12-24T14:05:17;12.57;;;4.13;;
67841;SDS011;54642;59.126;37.876;2022-12-24T14:07:50;14.45;;;2.90;;
67841;SDS011;54642;59.126;37.876;2022-12-24T14:10:20;18.25;;;2.70;;
67841;SDS011;54642;59.126;37.876;2022-12-24T14:12:50;23.50;;;3.67;;
67841;SDS011;54642;59.126;37.876;2022-12-24T14:18:20;13.02;;;3.33;;
67841;SDS011;54642;59.126;37.876;2022-12-24T14:20:53;20.77;;;3.83;;
67841;SDS011;54642;59.126;37.876;2022-12-24T14:25:56;16.27;;;5.35;;
67841;SDS011;54642;59.126;37.876;2022-12-24T14:28:27;10.32;;;3.03;;
67841;SDS011;54642;59.126;37.876;2022-12-24T14:31:02;13.80;;;4.60;;
67841;SDS011;54642;59.126;37.876;2022-12-24T14:33:30;13.73;;;5.47;;
67841;SDS011;54642;59.126;37.876;2022-12-24T14:35:57;8.60;;;4.15;;
67841;SDS011;54642;59.126;37.876;2022-12-24T14:38:25;6.80;;;3.28;;
67841;SDS011;54642;59.126;37.876;2022-12-24T14:40:56;16.75;;;8.05;;
67841;SDS011;54642;59.126;37.876;2022-12-24T14:43:45;27.15;;;11.82;;
67841;SDS011;54642;59.126;37.876;2022-12-24T14:49:12;10.15;;;4.70;;
67841;SDS011;54642;59.126;37.876;2022-12-24T14:54:43;10.32;;;4.63;;
67841;SDS011;54642;59.126;37.876;2022-12-24T15:05:03;12.23;;;6.97;;
67841;SDS011;54642;59.126;37.876;2022-12-24T15:07:30;16.83;;;8.70;;
67841;SDS011;54642;59.126;37.876;2022-12-24T15:09:57;13.10;;;8.02;;
67841;SDS011;54642;59.126;37.876;2022-12-24T15:12:24;3.65;;;2.67;;
67841;SDS011;54642;59.126;37.876;2022-12-24T15:14:49;15.95;;;3.83;;
67841;SDS011;54642;59.126;37.876;2022-12-24T15:19:41;8.77;;;3.88;;
67841;SDS011;54642;59.126;37.876;2022-12-24T15:22:23;8.82;;;7.15;;
67841;SDS011;54642;59.126;37.876;2022-12-24T15:24:54;9.93;;;4.47;;
67841;SDS011;54642;59.126;37.876;2022-12-24T15:27:25;17.70;;;7.47;;
67841;SDS011;54642;59.126;37.876;2022-12-24T15:29:53;14.02;;;6.22;;
67841;SDS011;54642;59.126;37.876;2022-12-24T15:32:21;14.65;;;7.40;;
67841;SDS011;54642;59.126;37.876;2022-12-24T15:34:48;23.70;;;10.20;;
67841;SDS011;54642;59.126;37.876;2022-12-24T15:47:46;12.20;;;5.97;;
67841;SDS011;54642;59.126;37.876;2022-12-24T15:50:16;13.80;;;5.13;;
67841;SDS011;54642;59.126;37.876;2022-12-24T15:53:00;10.52;;;4.55;;
67841;SDS011;54642;59.126;37.876;2022-12-24T15:55:38;8.30;;;4.07;;
67841;SDS011;54642;59.126;37.876;2022-12-24T15:58:22;9.57;;;5.18;;
67841;SDS011;54642;59.126;37.876;2022-12-24T16:01:36;9.68;;;3.97;;
67841;SDS011;54642;59.126;37.876;2022-12-24T16:03:38;18.83;;;5.88;;
67841;SDS011;54642;59.126;37.876;2022-12-24T16:06:09;17.25;;;7.28;;
67841;SDS011;54642;59.126;37.876;2022-12-24T16:08:39;17.92;;;7.15;;
67841;SDS011;54642;59.126;37.876;2022-12-24T16:13:36;17.35;;;6.82;;
67841;SDS011;54642;59.126;37.876;2022-12-24T16:16:07;17.65;;;6.07;;
67841;SDS011;54642;59.126;37.876;2022-12-24T16:18:37;11.10;;;3.92;;
67841;SDS011;54642;59.126;37.876;2022-12-24T16:24:02;17.92;;;7.78;;
67841;SDS011;54642;59.126;37.876;2022-12-24T16:26:32;20.55;;;11.73;;
67841;SDS011;54642;59.126;37.876;2022-12-24T16:28:59;28.83;;;11.38;;
67841;SDS011;54642;59.126;37.876;2022-12-24T16:31:44;84.97;;;39.38;;
67841;SDS011;54642;59.126;37.876;2022-12-24T16:34:13;13.93;;;6.50;;
67841;SDS011;54642;59.126;37.876;2022-12-24T16:36:40;14.95;;;6.97;;
67841;SDS011;54642;59.126;37.876;2022-12-24T16:39:41;30.23;;;14.15;;
67841;SDS011;54642;59.126;37.876;2022-12-24T16:42:00;10.63;;;6.28;;
67841;SDS011;54642;59.126;37.876;2022-12-24T16:44:46;9.73;;;3.90;;
67841;SDS011;54642;59.126;37.876;2022-12-24T16:47:14;8.40;;;3.83;;
67841;SDS011;54642;59.126;37.876;2022-12-24T16:49:49;16.27;;;7.45;;
67841;SDS011;54642;59.126;37.876;2022-12-24T16:52:16;12.80;;;5.30;;
67841;SDS011;54642;59.126;37.876;2022-12-24T16:54:46;10.40;;;4.45;;
67841;SDS011;54642;59.126;37.876;2022-12-24T16:57:13;23.38;;;6.78;;
67841;SDS011;54642;59.126;37.876;2022-12-24T16:59:39;9.45;;;4.00;;
67841;SDS011;54642;59.126;37.876;2022-12-24T17:04:33;3.53;;;2.10;;
67841;SDS011;54642;59.126;37.876;2022-12-24T17:06:59;3.22;;;2.15;;
67841;SDS011;54642;59.126;37.876;2022-12-24T17:09:25;8.10;;;3.15;;
67841;SDS011;54642;59.126;37.876;2022-12-24T17:11:51;12.73;;;4.88;;
67841;SDS011;54642;59.126;37.876;2022-12-24T17:14:19;14.18;;;6.82;;
67841;SDS011;54642;59.126;37.876;2022-12-24T17:19:10;5.88;;;3.03;;
67841;SDS011;54642;59.126;37.876;2022-12-24T17:21:36;12.75;;;4.78;;
67841;SDS011;54642;59.126;37.876;2022-12-24T17:24:02;8.80;;;3.50;;
67841;SDS011;54642;59.126;37.876;2022-12-24T17:26:29;24.52;;;10.05;;
67841;SDS011;54642;59.126;37.876;2022-12-24T17:31:21;26.80;;;10.50;;
67841;SDS011;54642;59.126;37.876;2022-12-24T17:33:48;33.03;;;12.93;;
67841;SDS011;54642;59.126;37.876;2022-12-24T17:36:15;30.75;;;13.98;;
67841;SDS011;54642;59.126;37.876;2022-12-24T17:38:41;40.63;;;17.42;;
67841;SDS011;54642;59.126;37.876;2022-12-24T17:43:36;27.35;;;10.13;;
67841;SDS011;54642;59.126;37.876;2022-12-24T17:48:29;8.52;;;3.33;;
67841;SDS011;54642;59.126;37.876;2022-12-24T17:50:55;13.13;;;3.20;;
67841;SDS011;54642;59.126;37.876;2022-12-24T17:55:47;8.23;;;3.65;;
67841;SDS011;54642;59.126;37.876;2022-12-24T18:00:40;4.75;;;1.80;;
67841;SDS011;54642;59.126;37.876;2022-12-24T18:03:08;8.15;;;4.22;;
67841;SDS011;54642;59.126;37.876;2022-12-24T18:05:38;19.85;;;8.70;;
67841;SDS011;54642;59.126;37.876;2022-12-24T18:08:05;6.00;;;2.78;;
67841;SDS011;54642;59.126;37.876;2022-12-24T18:10:31;2.47;;;1.15;;
67841;SDS011;54642;59.126;37.876;2022-12-24T18:15:22;9.20;;;2.47;;
67841;SDS011;54642;59.126;37.876;2022-12-24T18:20:16;13.45;;;4.25;;
67841;SDS011;54642;59.126;37.876;2022-12-24T18:25:07;5.63;;;3.22;;
67841;SDS011;54642;59.126;37.876;2022-12-24T18:27:34;5.78;;;2.85;;
67841;SDS011;54642;59.126;37.876;2022-12-24T18:32:26;15.77;;;3.05;;
67841;SDS011;54642;59.126;37.876;2022-12-24T18:34:52;8.23;;;3.33;;
67841;SDS011;54642;59.126;37.876;2022-12-24T18:37:18;7.65;;;2.67;;
67841;SDS011;54642;59.126;37.876;2022-12-24T18:39:44;7.47;;;4.20;;
67841;SDS011;54642;59.126;37.876;2022-12-24T18:42:10;3.63;;;1.40;;
67841;SDS011;54642;59.126;37.876;2022-12-24T18:44:42;5.68;;;2.85;;
67841;SDS011;54642;59.126;37.876;2022-12-24T18:47:09;12.70;;;4.03;;
67841;SDS011;54642;59.126;37.876;2022-12-24T18:49:35;10.02;;;3.90;;
67841;SDS011;54642;59.126;37.876;2022-12-24T18:52:02;8.55;;;4.72;;
67841;SDS011;54642;59.126;37.876;2022-12-24T18:54:29;13.07;;;7.22;;
67841;SDS011;54642;59.126;37.876;2022-12-24T18:56:55;17.77;;;8.57;;
67841;SDS011;54642;59.126;37.876;2022-12-24T18:59:22;17.15;;;7.70;;
67841;SDS011;54642;59.126;37.876;2022-12-24T19:01:48;7.70;;;4.38;;
67841;SDS011;54642;59.126;37.876;2022-12-24T19:06:40;5.68;;;2.30;;
67841;SDS011;54642;59.126;37.876;2022-12-24T19:09:06;14.18;;;4.38;;
67841;SDS011;54642;59.126;37.876;2022-12-24T19:11:33;7.22;;;3.60;;
67841;SDS011;54642;59.126;37.876;2022-12-24T19:14:01;8.50;;;3.13;;
67841;SDS011;54642;59.126;37.876;2022-12-24T19:16:28;8.70;;;3.65;;
67841;SDS011;54642;59.126;37.876;2022-12-24T19:18:55;10.60;;;3.53;;
67841;SDS011;54642;59.126;37.876;2022-12-24T19:21:21;9.00;;;4.93;;